createdAt,value
2022-10-22T00:02:03.582Z,41.10
2022-10-22T00:04:34.418Z,43.90
2022-10-22T00:07:01.742Z,43.30
2022-10-22T00:09:29.039Z,54.60
2022-10-22T00:11:55.352Z,37.80
2022-10-22T00:14:21.598Z,48.10
2022-10-22T00:16:47.976Z,46.20
2022-10-22T00:19:14.788Z,39.50
2022-10-22T00:21:41.075Z,39.10
2022-10-22T00:24:07.486Z,42.10
2022-10-22T00:26:33.998Z,45.00
2022-10-22T00:29:00.253Z,45.20
2022-10-22T00:31:26.498Z,42.90
2022-10-22T00:33:52.699Z,43.00
2022-10-22T00:36:19.016Z,48.40
2022-10-22T00:38:45.466Z,42.50
2022-10-22T00:41:12.239Z,41.30
2022-10-22T00:43:59.253Z,39.70
2022-10-22T00:46:25.825Z,35.20
2022-10-22T00:48:54.173Z,52.70
2022-10-22T00:51:25.524Z,46.40
2022-10-22T00:53:59.119Z,43.80
2022-10-22T00:58:56.354Z,42.40
2022-10-22T01:01:27.282Z,49.50
2022-10-22T01:03:55.275Z,38.20
2022-10-22T01:06:28.817Z,44.60
2022-10-22T01:11:53.464Z,39.50
2022-10-22T01:14:48.204Z,42.30
2022-10-22T01:17:32.127Z,40.00
2022-10-22T01:22:58.893Z,38.90
2022-10-22T01:25:50.032Z,51.40
2022-10-22T01:28:43.170Z,47.20
2022-10-22T01:31:11.662Z,48.40
2022-10-22T01:33:39.894Z,49.60
2022-10-22T01:36:07.731Z,51.40
2022-10-22T01:38:34.049Z,59.00
2022-10-22T01:41:00.473Z,47.90
2022-10-22T01:43:26.733Z,39.30
2022-10-22T01:46:00.297Z,41.40
2022-10-22T01:48:58.537Z,43.20
2022-10-22T01:51:56.720Z,50.50
2022-10-22T01:54:50.582Z,36.80
2022-10-22T01:57:25.756Z,41.50
2022-10-22T02:00:03.679Z,49.50
2022-10-22T02:05:33.292Z,38.50
2022-10-22T02:08:04.938Z,44.00
2022-10-22T02:10:31.959Z,49.40
2022-10-22T02:13:00.498Z,45.00
2022-10-22T02:15:30.603Z,51.40
2022-10-22T02:17:59.253Z,52.60
2022-10-22T02:20:30.697Z,47.90
2022-10-22T02:22:58.884Z,45.10
2022-10-22T02:25:30.017Z,43.70
2022-10-22T02:28:16.839Z,51.20
2022-10-22T02:30:48.178Z,49.90
2022-10-22T02:33:22.440Z,46.10
2022-10-22T02:35:51.010Z,51.10
2022-10-22T02:38:18.774Z,43.10
2022-10-22T02:40:46.093Z,49.00
2022-10-22T02:43:12.329Z,41.50
2022-10-22T02:45:38.651Z,48.60
2022-10-22T02:48:05.438Z,43.80
2022-10-22T02:50:31.824Z,42.60
2022-10-22T02:52:58.055Z,46.70
2022-10-22T02:55:24.318Z,44.50
2022-10-22T02:57:50.582Z,50.80
2022-10-22T03:00:16.957Z,51.60
2022-10-22T03:02:43.238Z,50.60
2022-10-22T03:05:09.528Z,50.90
2022-10-22T03:07:35.749Z,41.90
2022-10-22T03:10:02.589Z,54.40
2022-10-22T03:12:29.095Z,60.40
2022-10-22T03:14:55.308Z,46.60
2022-10-22T03:17:21.667Z,58.40
2022-10-22T03:19:47.913Z,53.80
2022-10-22T03:22:20.973Z,60.80
2022-10-22T03:24:51.897Z,65.20
2022-10-22T03:27:21.060Z,66.40
2022-10-22T03:29:50.533Z,53.70
2022-10-22T03:32:17.196Z,81.00
2022-10-22T03:34:43.472Z,55.80
2022-10-22T03:37:10.785Z,61.60
2022-10-22T03:39:37.920Z,66.50
2022-10-22T03:42:05.747Z,68.70
2022-10-22T03:44:32.739Z,65.80
2022-10-22T03:47:01.751Z,52.00
2022-10-22T03:49:29.261Z,67.30
2022-10-22T03:51:55.505Z,68.50
2022-10-22T03:54:21.733Z,72.80
2022-10-22T03:56:48.085Z,59.20
2022-10-22T03:59:14.773Z,55.00
2022-10-22T04:01:41.305Z,58.60
2022-10-22T04:04:07.969Z,57.80
2022-10-22T04:06:34.211Z,56.50
2022-10-22T04:09:01.606Z,54.60
2022-10-22T04:11:28.023Z,54.20
2022-10-22T04:13:54.229Z,42.60
2022-10-22T04:16:24.051Z,54.90
2022-10-22T04:18:52.505Z,42.60
2022-10-22T04:21:20.182Z,40.90
2022-10-22T04:23:49.247Z,37.80
2022-10-22T04:26:16.991Z,40.80
2022-10-22T04:28:44.066Z,40.20
2022-10-22T04:31:13.068Z,41.70
2022-10-22T04:33:40.073Z,37.70
2022-10-22T04:36:14.611Z,41.30
2022-10-22T04:38:42.373Z,36.90
2022-10-22T04:41:17.612Z,37.60
2022-10-22T04:43:45.011Z,34.60
2022-10-22T04:46:13.067Z,32.90
2022-10-22T04:48:41.327Z,33.70
2022-10-22T04:51:10.342Z,37.70
2022-10-22T04:53:36.665Z,31.90
2022-10-22T04:56:21.148Z,32.00
2022-10-22T04:58:53.108Z,27.30
2022-10-22T05:01:43.020Z,28.00
2022-10-22T05:04:12.752Z,28.00
2022-10-22T05:06:39.163Z,26.20
2022-10-22T05:09:10.194Z,26.90
2022-10-22T05:11:40.808Z,31.30
2022-10-22T05:14:08.649Z,38.40
2022-10-22T05:16:37.253Z,38.40
2022-10-22T05:19:04.747Z,46.90
2022-10-22T05:21:31.228Z,80.30
2022-10-22T05:24:01.432Z,72.00
2022-10-22T05:26:28.837Z,99.70
2022-10-22T05:28:55.929Z,49.70
2022-10-22T05:31:23.300Z,35.20
2022-10-22T05:33:49.614Z,26.70
2022-10-22T05:36:18.939Z,24.40
2022-10-22T05:38:45.576Z,25.80
2022-10-22T05:41:15.659Z,23.70
2022-10-22T05:43:42.213Z,25.60
2022-10-22T05:46:10.739Z,26.10
2022-10-22T05:48:38.054Z,26.50
2022-10-22T05:51:06.565Z,26.50
2022-10-22T05:53:34.884Z,21.70
2022-10-22T05:56:02.932Z,26.70
2022-10-22T05:58:30.354Z,23.30
2022-10-22T06:01:12.588Z,23.30
2022-10-22T06:03:38.949Z,25.70
2022-10-22T06:06:17.337Z,24.60
2022-10-22T06:08:45.486Z,25.60
2022-10-22T06:11:11.827Z,30.20
2022-10-22T06:13:38.203Z,38.40
2022-10-22T06:16:04.502Z,29.10
2022-10-22T06:18:32.526Z,31.80
2022-10-22T06:21:07.439Z,28.80
2022-10-22T06:23:34.031Z,32.50
2022-10-22T06:26:01.309Z,42.60
2022-10-22T06:28:27.829Z,40.20
2022-10-22T06:30:54.042Z,45.10
2022-10-22T06:33:20.249Z,81.10
2022-10-22T06:35:47.802Z,78.80
2022-10-22T06:38:14.394Z,93.40
2022-10-22T06:40:42.825Z,88.10
2022-10-22T06:43:12.522Z,59.20
2022-10-22T06:45:39.562Z,63.20
2022-10-22T06:48:06.314Z,66.50
2022-10-22T06:50:35.929Z,48.90
2022-10-22T06:53:02.315Z,52.20
2022-10-22T06:55:28.541Z,47.10
2022-10-22T06:57:54.955Z,58.10
2022-10-22T07:00:21.806Z,61.10
2022-10-22T07:02:56.388Z,42.80
2022-10-22T07:05:25.323Z,53.80
2022-10-22T07:07:51.541Z,99.60
2022-10-22T07:10:18.006Z,80.70
2022-10-22T07:12:44.323Z,111.50
2022-10-22T07:15:10.939Z,82.80
2022-10-22T07:17:37.652Z,116.00
2022-10-22T07:20:04.614Z,133.90
2022-10-22T07:22:31.121Z,156.10
2022-10-22T07:24:57.457Z,128.80
2022-10-22T07:27:23.686Z,143.30
2022-10-22T07:29:49.865Z,108.80
2022-10-22T07:32:17.959Z,126.30
2022-10-22T07:34:45.181Z,106.20
2022-10-22T07:37:11.451Z,152.50
2022-10-22T07:39:37.822Z,137.10
2022-10-22T07:42:04.121Z,161.00
2022-10-22T07:44:30.293Z,156.20
2022-10-22T07:46:56.527Z,159.30
2022-10-22T07:49:22.798Z,186.20
2022-10-22T07:51:49.121Z,154.30
2022-10-22T07:54:15.876Z,174.20
2022-10-22T07:56:42.108Z,181.10
2022-10-22T07:59:08.425Z,128.20
2022-10-22T08:01:34.658Z,111.50
2022-10-22T08:04:00.915Z,126.70
2022-10-22T08:06:27.209Z,153.10
2022-10-22T08:08:53.452Z,128.00
2022-10-22T08:11:19.823Z,142.30
2022-10-22T08:13:46.069Z,132.30
2022-10-22T08:16:13.218Z,140.10
2022-10-22T08:18:39.509Z,175.50
2022-10-22T08:21:06.060Z,119.40
2022-10-22T08:23:33.587Z,116.80
2022-10-22T08:25:59.983Z,136.90
2022-10-22T08:28:27.985Z,123.00
2022-10-22T08:30:54.615Z,124.90
2022-10-22T08:33:20.978Z,97.80
2022-10-22T08:35:49.113Z,172.90
2022-10-22T08:38:15.500Z,139.30
2022-10-22T08:40:43.771Z,114.30
2022-10-22T08:43:33.633Z,130.50
2022-10-22T08:46:22.486Z,115.00
2022-10-22T08:48:54.245Z,94.10
2022-10-22T08:51:26.104Z,103.40
2022-10-22T08:54:00.064Z,95.90
2022-10-22T08:56:26.698Z,101.90
2022-10-22T08:58:58.811Z,85.00
2022-10-22T09:01:37.466Z,71.40
2022-10-22T09:04:38.193Z,73.40
2022-10-22T09:07:04.501Z,78.40
2022-10-22T09:09:41.856Z,87.40
2022-10-22T09:12:19.330Z,80.70
2022-10-22T09:14:46.930Z,83.90
2022-10-22T09:17:28.647Z,68.20
2022-10-22T09:20:11.596Z,96.50
2022-10-22T09:23:13.081Z,78.80
2022-10-22T09:25:39.832Z,72.50
2022-10-22T09:28:08.840Z,66.80
2022-10-22T09:30:39.162Z,69.40
2022-10-22T09:33:05.318Z,70.90
2022-10-22T09:35:44.930Z,71.10
2022-10-22T09:38:14.010Z,57.20
2022-10-22T09:40:47.509Z,77.50
2022-10-22T09:43:14.291Z,77.10
2022-10-22T09:45:42.371Z,75.90
2022-10-22T09:48:10.900Z,71.70
2022-10-22T09:51:09.083Z,82.80
2022-10-22T09:53:43.471Z,83.90
2022-10-22T09:56:21.709Z,66.60
2022-10-22T09:58:50.403Z,74.00
2022-10-22T10:01:37.823Z,73.40
2022-10-22T10:04:09.705Z,69.20
2022-10-22T10:06:39.508Z,81.90
2022-10-22T10:09:14.836Z,70.50
2022-10-22T10:12:13.110Z,77.20
2022-10-22T10:14:52.042Z,79.80
2022-10-22T10:17:33.312Z,83.40
2022-10-22T10:20:23.714Z,67.70
2022-10-22T10:22:57.433Z,66.30
2022-10-22T10:25:35.129Z,69.30
2022-10-22T10:28:33.291Z,99.00
2022-10-22T10:31:19.826Z,73.70
2022-10-22T10:34:02.067Z,80.80
2022-10-22T10:36:50.489Z,84.90
2022-10-22T10:39:50.804Z,93.40
2022-10-22T10:42:37.085Z,88.40
2022-10-22T10:45:22.270Z,84.60
2022-10-22T10:48:07.564Z,96.20
2022-10-22T10:50:50.171Z,88.20
2022-10-22T10:53:40.946Z,98.90
2022-10-22T10:56:23.374Z,91.90
2022-10-22T10:59:26.138Z,95.40
2022-10-22T11:02:24.422Z,89.10
2022-10-22T11:05:17.575Z,94.80
2022-10-22T11:07:51.048Z,88.40
2022-10-22T11:10:44.690Z,90.30
2022-10-22T11:13:14.656Z,90.10
2022-10-22T11:15:46.633Z,96.10
2022-10-22T11:18:43.843Z,88.50
2022-10-22T11:21:21.986Z,95.30
2022-10-22T11:23:52.183Z,82.20
2022-10-22T11:26:37.840Z,84.40
2022-10-22T11:29:10.153Z,84.90
2022-10-22T11:31:37.751Z,85.40
2022-10-22T11:34:33.781Z,93.40
2022-10-22T11:37:03.394Z,90.40
2022-10-22T11:39:54.591Z,75.40
2022-10-22T11:42:30.941Z,88.40
2022-10-22T11:45:00.654Z,88.40
2022-10-22T11:47:32.482Z,99.00
2022-10-22T11:50:16.120Z,89.90
2022-10-22T11:52:58.504Z,92.30
2022-10-22T11:55:50.808Z,86.20
2022-10-22T11:58:41.387Z,108.10
2022-10-22T12:01:07.543Z,94.10
2022-10-22T12:03:38.773Z,89.90
2022-10-22T12:06:11.054Z,98.60
2022-10-22T12:08:56.830Z,92.70
2022-10-22T12:11:46.957Z,90.10
2022-10-22T12:14:19.399Z,79.80
2022-10-22T12:16:56.079Z,77.40
2022-10-22T12:19:23.061Z,83.60
2022-10-22T12:21:54.251Z,82.90
2022-10-22T12:24:23.698Z,91.50
2022-10-22T12:26:51.707Z,81.10
2022-10-22T12:29:21.926Z,88.10
2022-10-22T12:31:48.285Z,79.80
2022-10-22T12:34:17.265Z,83.80
2022-10-22T12:36:45.700Z,85.60
2022-10-22T12:39:18.605Z,80.70
2022-10-22T12:41:44.952Z,100.30
2022-10-22T12:44:14.670Z,93.90
2022-10-22T12:46:42.535Z,102.70
2022-10-22T12:49:33.634Z,89.20
2022-10-22T12:52:04.383Z,103.00
2022-10-22T12:54:32.448Z,106.60
2022-10-22T12:56:59.702Z,100.10
2022-10-22T12:59:32.507Z,84.80
2022-10-22T13:01:59.216Z,83.20
2022-10-22T13:04:25.982Z,80.70
2022-10-22T13:07:06.447Z,87.20
2022-10-22T13:09:41.930Z,93.00
2022-10-22T13:12:15.474Z,88.10
2022-10-22T13:17:15.733Z,77.50
2022-10-22T13:19:46.459Z,92.30
2022-10-22T13:22:32.761Z,67.60
2022-10-22T13:25:13.962Z,73.80
2022-10-22T13:27:45.154Z,81.00
2022-10-22T13:30:25.010Z,63.50
2022-10-22T13:32:54.548Z,66.80
2022-10-22T13:35:24.728Z,74.00
2022-10-22T13:37:51.797Z,66.00
2022-10-22T13:40:18.404Z,56.90
2022-10-22T13:42:44.888Z,69.80
2022-10-22T13:45:12.966Z,63.20
2022-10-22T13:47:39.749Z,76.20
2022-10-22T13:50:13.205Z,72.30
2022-10-22T13:52:46.637Z,80.50
2022-10-22T13:55:34.473Z,67.60
2022-10-22T13:58:10.240Z,73.80
2022-10-22T14:00:42.526Z,65.90
2022-10-22T14:03:11.394Z,56.00
2022-10-22T14:05:37.622Z,66.40
2022-10-22T14:08:11.044Z,60.60
2022-10-22T14:10:37.315Z,55.10
2022-10-22T14:13:06.763Z,63.00
2022-10-22T14:15:33.690Z,70.00
2022-10-22T14:18:00.514Z,67.60
2022-10-22T14:20:31.544Z,120.70
2022-10-22T14:23:12.387Z,95.10
2022-10-22T14:25:38.745Z,79.00
2022-10-22T14:28:05.236Z,81.70
2022-10-22T14:30:32.171Z,82.60
2022-10-22T14:32:58.592Z,97.90
2022-10-22T14:35:24.871Z,84.40
2022-10-22T14:37:51.046Z,91.60
2022-10-22T14:40:19.754Z,95.20
2022-10-22T14:42:47.834Z,86.90
2022-10-22T14:45:21.518Z,76.50
2022-10-22T14:47:49.279Z,82.70
2022-10-22T14:50:16.238Z,75.20
2022-10-22T14:52:42.947Z,70.30
2022-10-22T14:55:11.589Z,68.70
2022-10-22T14:57:39.539Z,89.70
2022-10-22T15:00:09.347Z,79.60
2022-10-22T15:02:35.742Z,78.90
2022-10-22T15:05:02.936Z,78.00
2022-10-22T15:07:29.305Z,71.40
2022-10-22T15:09:55.900Z,72.00
2022-10-22T15:12:22.551Z,84.40
2022-10-22T15:14:49.471Z,83.70
2022-10-22T15:17:17.051Z,71.60
2022-10-22T15:19:43.980Z,77.60
2022-10-22T15:22:11.192Z,76.20
2022-10-22T15:24:38.231Z,76.80
2022-10-22T15:27:04.540Z,77.80
2022-10-22T15:29:32.043Z,70.90
2022-10-22T15:31:59.823Z,74.70
2022-10-22T15:34:32.361Z,69.60
2022-10-22T15:37:01.660Z,72.50
2022-10-22T15:39:28.740Z,73.10
2022-10-22T15:41:55.773Z,68.10
2022-10-22T15:44:27.753Z,64.50
2022-10-22T15:46:55.141Z,66.60
2022-10-22T15:49:22.871Z,65.70
2022-10-22T15:51:49.482Z,56.10
2022-10-22T15:54:18.582Z,76.30
2022-10-22T15:56:45.502Z,67.60
2022-10-22T15:59:13.936Z,64.10
2022-10-22T16:01:40.849Z,69.80
2022-10-22T16:04:07.867Z,76.30
2022-10-22T16:06:37.439Z,80.40
2022-10-22T16:09:07.122Z,76.50
2022-10-22T16:11:34.288Z,72.80
2022-10-22T16:14:01.328Z,78.20
2022-10-22T16:16:30.709Z,66.70
2022-10-22T16:18:56.915Z,79.30
2022-10-22T16:21:24.400Z,74.40
2022-10-22T16:23:50.794Z,69.10
2022-10-22T16:26:18.439Z,82.00
2022-10-22T16:28:46.706Z,83.30
2022-10-22T16:31:16.948Z,92.20
2022-10-22T16:33:46.426Z,94.10
2022-10-22T16:36:18.178Z,85.90
2022-10-22T16:38:45.498Z,87.40
2022-10-22T16:41:34.310Z,86.50
2022-10-22T16:44:03.043Z,88.10
2022-10-22T16:46:30.221Z,100.90
2022-10-22T16:48:56.634Z,97.20
2022-10-22T16:51:25.206Z,105.90
2022-10-22T16:53:52.376Z,109.70
2022-10-22T16:56:22.525Z,112.10
2022-10-22T16:58:56.531Z,107.40
2022-10-22T17:01:26.741Z,118.50
2022-10-22T17:03:55.572Z,121.20
2022-10-22T17:06:23.728Z,114.10
2022-10-22T17:08:51.158Z,109.90
2022-10-22T17:11:24.107Z,118.80
2022-10-22T17:13:54.475Z,121.10
2022-10-22T17:16:24.646Z,125.00
2022-10-22T17:18:53.969Z,127.00
2022-10-22T17:21:21.345Z,124.50
2022-10-22T17:23:48.468Z,136.90
2022-10-22T17:26:21.311Z,121.60
2022-10-22T17:28:49.632Z,123.30
2022-10-22T17:31:24.762Z,151.60
2022-10-22T17:33:53.384Z,146.80
2022-10-22T17:36:23.688Z,139.20
2022-10-22T17:38:52.383Z,121.40
2022-10-22T17:41:30.085Z,142.30
2022-10-22T17:43:58.791Z,148.80
2022-10-22T17:46:27.556Z,147.50
2022-10-22T17:48:56.435Z,142.80
2022-10-22T17:51:24.923Z,140.40
2022-10-22T17:53:51.558Z,139.90
2022-10-22T17:56:24.061Z,144.10
2022-10-22T17:58:51.491Z,138.10
2022-10-22T18:01:24.333Z,142.10
2022-10-22T18:03:57.756Z,132.30
2022-10-22T18:06:24.233Z,126.70
2022-10-22T18:08:50.770Z,117.60
2022-10-22T18:11:20.431Z,134.80
2022-10-22T18:13:51.573Z,131.80
2022-10-22T18:16:18.901Z,157.20
2022-10-22T18:18:47.121Z,148.70
2022-10-22T18:21:14.914Z,137.70
2022-10-22T18:23:41.861Z,139.30
2022-10-22T18:26:08.409Z,132.90
2022-10-22T18:28:35.923Z,128.20
2022-10-22T18:31:07.047Z,155.20
2022-10-22T18:33:35.452Z,145.10
2022-10-22T18:36:07.387Z,142.40
2022-10-22T18:38:34.702Z,133.80
2022-10-22T18:41:00.978Z,136.00
2022-10-22T18:43:27.531Z,117.40
2022-10-22T18:45:54.910Z,136.60
2022-10-22T18:48:22.364Z,124.10
2022-10-22T18:50:58.862Z,108.90
2022-10-22T18:53:25.461Z,118.10
2022-10-22T18:55:51.735Z,110.30
2022-10-22T18:58:18.036Z,104.00
2022-10-22T19:00:44.405Z,116.70
2022-10-22T19:03:12.467Z,111.40
2022-10-22T19:05:47.030Z,106.90
2022-10-22T19:08:16.263Z,115.90
2022-10-22T19:10:44.410Z,101.20
2022-10-22T19:13:16.115Z,110.20
2022-10-22T19:15:43.299Z,93.50
2022-10-22T19:18:12.089Z,111.00
2022-10-22T19:20:38.459Z,94.60
2022-10-22T19:23:05.276Z,97.20
2022-10-22T19:25:31.471Z,99.90
2022-10-22T19:27:57.727Z,83.50
2022-10-22T19:30:23.963Z,95.10
2022-10-22T19:32:50.260Z,94.10
2022-10-22T19:35:16.620Z,82.60
2022-10-22T19:37:47.494Z,95.90
2022-10-22T19:40:14.712Z,81.60
2022-10-22T19:42:43.623Z,91.70
2022-10-22T19:45:10.288Z,89.70
2022-10-22T19:47:37.288Z,106.00
2022-10-22T19:50:03.894Z,85.20
2022-10-22T19:52:30.138Z,103.60
2022-10-22T19:54:56.334Z,88.90
2022-10-22T19:57:22.588Z,91.40
2022-10-22T19:59:51.933Z,96.80
2022-10-22T20:02:19.683Z,113.00
2022-10-22T20:04:49.278Z,98.60
2022-10-22T20:07:16.645Z,91.00
2022-10-22T20:09:43.103Z,101.50
2022-10-22T20:12:09.360Z,106.20
2022-10-22T20:14:36.789Z,88.50
2022-10-22T20:17:03.090Z,103.40
2022-10-22T20:19:29.538Z,77.90
2022-10-22T20:21:55.913Z,94.90
2022-10-22T20:24:22.320Z,85.70
2022-10-22T20:26:48.673Z,90.70
2022-10-22T20:29:15.588Z,89.70
2022-10-22T20:31:41.966Z,85.80
2022-10-22T20:34:08.294Z,88.20
2022-10-22T20:36:34.639Z,85.30
2022-10-22T20:39:05.406Z,85.10
2022-10-22T20:41:39.830Z,81.60
2022-10-22T20:44:10.511Z,104.70
2022-10-22T20:46:36.787Z,88.50
2022-10-22T20:49:12.722Z,85.60
2022-10-22T20:51:39.351Z,75.90
2022-10-22T20:54:07.210Z,84.50
2022-10-22T20:56:39.045Z,98.70
2022-10-22T20:59:07.657Z,76.10
2022-10-22T21:01:39.130Z,85.40
2022-10-22T21:04:06.248Z,84.10
2022-10-22T21:06:37.231Z,91.70
2022-10-22T21:09:09.304Z,77.60
2022-10-22T21:11:37.365Z,89.60
2022-10-22T21:14:05.503Z,89.90
2022-10-22T21:16:32.166Z,76.60
2022-10-22T21:18:58.424Z,86.50
2022-10-22T21:21:24.693Z,80.00
2022-10-22T21:23:51.105Z,94.00
2022-10-22T21:26:18.832Z,86.10
2022-10-22T21:28:45.505Z,81.70
2022-10-22T21:31:19.377Z,87.20
2022-10-22T21:33:45.588Z,72.80
2022-10-22T21:36:11.764Z,83.20
2022-10-22T21:38:38.046Z,88.10
2022-10-22T21:41:12.642Z,95.20
2022-10-22T21:43:40.209Z,85.70
2022-10-22T21:46:09.630Z,69.30
2022-10-22T21:48:37.920Z,68.50
2022-10-22T21:51:09.797Z,72.70
2022-10-22T21:53:36.465Z,70.60
2022-10-22T21:56:04.025Z,80.30
2022-10-22T21:58:30.556Z,86.60
2022-10-22T22:00:57.762Z,82.00
2022-10-22T22:03:24.232Z,88.00
2022-10-22T22:05:56.663Z,85.60
2022-10-22T22:08:22.923Z,80.70
2022-10-22T22:10:51.287Z,82.80
2022-10-22T22:13:17.530Z,87.60
2022-10-22T22:15:43.797Z,81.10
2022-10-22T22:18:10.051Z,80.30
2022-10-22T22:20:36.237Z,80.70
2022-10-22T22:23:02.497Z,76.50
2022-10-22T22:25:28.694Z,91.40
2022-10-22T22:27:54.936Z,75.50
2022-10-22T22:30:21.148Z,80.60
2022-10-22T22:32:47.347Z,89.70
2022-10-22T22:35:13.555Z,91.20
2022-10-22T22:37:40.127Z,84.10
2022-10-22T22:40:07.202Z,82.60
2022-10-22T22:42:33.481Z,81.50
2022-10-22T22:44:59.775Z,87.10
2022-10-22T22:47:26.013Z,85.60
2022-10-22T22:49:52.199Z,93.70
2022-10-22T22:52:18.446Z,88.60
2022-10-22T22:54:44.766Z,95.00
2022-10-22T22:57:11.046Z,89.70
2022-10-22T22:59:37.398Z,83.80
2022-10-22T23:02:03.599Z,91.60
2022-10-22T23:04:29.838Z,90.30
2022-10-22T23:06:56.046Z,91.30
2022-10-22T23:09:22.451Z,99.00
2022-10-22T23:11:49.933Z,92.50
2022-10-22T23:14:18.104Z,95.00
2022-10-22T23:16:47.620Z,96.10
2022-10-22T23:19:15.862Z,87.20
2022-10-22T23:21:48.226Z,95.70
2022-10-22T23:24:17.050Z,89.40
2022-10-22T23:26:45.818Z,94.10
2022-10-22T23:29:14.018Z,94.60
2022-10-22T23:31:41.136Z,102.30
2022-10-22T23:34:09.026Z,90.40
2022-10-22T23:36:36.565Z,94.80
2022-10-22T23:39:09.625Z,104.80
2022-10-22T23:41:36.628Z,83.20
2022-10-22T23:44:04.052Z,90.90
2022-10-22T23:46:30.482Z,103.60
2022-10-22T23:48:56.672Z,90.20
2022-10-22T23:51:23.126Z,90.50
2022-10-22T23:53:58.987Z,79.00
2022-10-22T23:56:27.297Z,72.70
2022-10-22T23:58:54.636Z,79.30
